Time;durP1;ratioP1;P1;durP2;ratioP2;P2;SDS_P1;SDS_P2;PMS_P1;PMS_P2;Temp;Humidity;BMP_temperature;BMP_pressure;BME280_temperature;BME280_humidity;BME280_pressure;Samples;Min_cycle;Max_cycle;Signal;HPM_P1;HPM_P2
2024/01/24 00:00:19;;;;;;;3.55;1.80;;;19.10;51.10;;;;;;4994218;28;20440;-54
2024/01/24 00:02:46;;;;;;;3.70;1.52;;;19.10;51.10;;;;;;5006424;28;20033;-52
2024/01/24 00:05:11;;;;;;;3.35;1.30;;;19.10;51.10;;;;;;5002653;28;20061;-49
2024/01/24 00:07:37;;;;;;;2.05;1.10;;;19.10;51.10;;;;;;4996799;28;20524;-51
2024/01/24 00:10:03;;;;;;;2.38;1.20;;;19.10;51.10;;;;;;5001063;28;20403;-54
2024/01/24 00:12:28;;;;;;;3.00;1.65;;;19.10;51.10;;;;;;5000790;28;20080;-48
2024/01/24 00:14:54;;;;;;;3.45;1.52;;;19.10;51.10;;;;;;4995544;28;20026;-48
2024/01/24 00:17:19;;;;;;;1.98;1.05;;;19.10;51.10;;;;;;5004057;28;20030;-51
2024/01/24 00:19:45;;;;;;;2.15;1.25;;;19.10;51.10;;;;;;5000585;28;20060;-49
2024/01/24 00:22:11;;;;;;;2.42;1.20;;;19.10;51.10;;;;;;4995887;28;20045;-50
2024/01/24 00:24:37;;;;;;;2.30;0.98;;;19.10;51.10;;;;;;4999904;28;20053;-50
2024/01/24 00:27:02;;;;;;;2.80;1.13;;;19.10;51.10;;;;;;4993966;28;20486;-49
2024/01/24 00:29:28;;;;;;;2.60;1.08;;;19.10;51.10;;;;;;4997773;28;20034;-51
2024/01/24 00:31:55;;;;;;;2.45;1.08;;;19.10;51.10;;;;;;5001123;28;20037;-54
2024/01/24 00:34:21;;;;;;;2.92;1.27;;;19.10;51.10;;;;;;4994628;28;20507;-52
2024/01/24 00:36:46;;;;;;;1.92;1.23;;;19.10;51.10;;;;;;4999240;28;20053;-49
2024/01/24 00:39:13;;;;;;;2.20;0.98;;;19.10;51.10;;;;;;4996013;28;20030;-51
2024/01/24 00:41:41;;;;;;;3.35;1.70;;;19.10;51.10;;;;;;4985751;28;20027;-50
2024/01/24 00:44:07;;;;;;;2.30;1.00;;;19.00;51.00;;;;;;5000050;28;20037;-48
2024/01/24 00:46:32;;;;;;;1.92;0.70;;;19.10;51.10;;;;;;4996057;28;20046;-50
2024/01/24 00:48:58;;;;;;;1.77;1.27;;;19.10;51.10;;;;;;4998014;28;20068;-51
2024/01/24 00:51:23;;;;;;;2.08;1.20;;;19.10;51.10;;;;;;5003664;28;20034;-49
2024/01/24 00:53:53;;;;;;;1.80;1.02;;;19.10;51.10;;;;;;4999067;28;20034;-49
2024/01/24 00:56:18;;;;;;;2.22;1.10;;;19.10;51.10;;;;;;4994300;28;20030;-50
2024/01/24 00:58:44;;;;;;;2.28;0.90;;;19.10;51.10;;;;;;5008094;28;20052;-48
2024/01/24 01:01:10;;;;;;;1.48;0.63;;;19.10;51.10;;;;;;4997499;28;20116;-49
2024/01/24 01:03:35;;;;;;;1.83;0.70;;;19.00;51.10;;;;;;4996866;28;20026;-51
2024/01/24 01:06:01;;;;;;;2.28;0.80;;;19.00;51.10;;;;;;4999705;28;20184;-49
2024/01/24 01:08:26;;;;;;;1.48;0.77;;;19.00;51.10;;;;;;4999897;28;20117;-50
2024/01/24 01:10:52;;;;;;;2.83;1.13;;;19.00;51.20;;;;;;4995602;28;20372;-51
2024/01/24 01:13:18;;;;;;;2.60;0.98;;;19.00;51.20;;;;;;5005552;28;20379;-49
2024/01/24 01:15:43;;;;;;;3.15;1.00;;;18.90;51.30;;;;;;4998660;28;20035;-50
2024/01/24 01:18:10;;;;;;;1.17;0.73;;;18.90;51.30;;;;;;4998735;28;20402;-50
2024/01/24 01:20:35;;;;;;;2.47;1.00;;;18.90;51.40;;;;;;4997447;28;20029;-49
2024/01/24 01:23:02;;;;;;;1.83;0.95;;;18.90;51.40;;;;;;4997007;28;20049;-48
2024/01/24 01:25:27;;;;;;;2.60;1.00;;;18.80;51.40;;;;;;4998854;28;20586;-51
2024/01/24 01:27:53;;;;;;;1.58;0.95;;;18.80;51.50;;;;;;4996787;28;20034;-50
2024/01/24 01:30:18;;;;;;;1.85;0.90;;;18.80;51.60;;;;;;4995269;28;20023;-50
2024/01/24 01:32:44;;;;;;;1.17;0.60;;;18.80;51.60;;;;;;5000661;28;20053;-50
2024/01/24 01:35:10;;;;;;;1.88;0.90;;;18.80;51.60;;;;;;4978786;28;20141;-49
2024/01/24 01:37:38;;;;;;;2.22;1.15;;;18.70;51.60;;;;;;4997647;28;20117;-50
2024/01/24 01:40:06;;;;;;;1.55;0.77;;;18.70;51.60;;;;;;4982440;28;20050;-50
2024/01/24 01:42:31;;;;;;;1.88;0.75;;;18.80;51.70;;;;;;5000115;28;20079;-50
2024/01/24 01:44:57;;;;;;;2.10;0.95;;;18.80;51.70;;;;;;4997437;28;20042;-56
2024/01/24 01:47:23;;;;;;;2.53;0.50;;;18.80;51.60;;;;;;4996010;28;20037;-56
2024/01/24 01:49:49;;;;;;;1.70;0.80;;;18.80;51.60;;;;;;4998251;28;20117;-56
2024/01/24 01:52:16;;;;;;;1.85;0.98;;;18.80;51.50;;;;;;4998420;28;20080;-52
2024/01/24 01:54:42;;;;;;;1.42;0.90;;;18.80;51.40;;;;;;4998548;28;20033;-47
2024/01/24 01:57:11;;;;;;;2.40;0.63;;;18.90;52.00;;;;;;4995677;28;20553;-47
2024/01/24 01:59:39;;;;;;;1.33;0.60;;;18.90;51.30;;;;;;4991698;28;20087;-54
2024/01/24 02:02:05;;;;;;;1.83;0.70;;;18.90;51.20;;;;;;4992341;28;20369;-57
2024/01/24 02:04:31;;;;;;;1.40;0.82;;;19.00;51.20;;;;;;4995638;28;20029;-52
2024/01/24 02:06:56;;;;;;;1.67;0.80;;;19.00;51.10;;;;;;4997006;28;20125;-46
2024/01/24 02:09:22;;;;;;;2.15;0.88;;;19.00;51.00;;;;;;5000870;28;20056;-47
2024/01/24 02:11:48;;;;;;;2.65;0.75;;;19.10;51.00;;;;;;4994434;28;20026;-47
2024/01/24 02:14:14;;;;;;;2.05;1.10;;;19.10;51.00;;;;;;4987624;28;20034;-49
2024/01/24 02:16:39;;;;;;;2.00;0.50;;;19.10;50.90;;;;;;5000925;28;20084;-57
2024/01/24 02:19:06;;;;;;;1.77;0.80;;;19.10;50.80;;;;;;4999371;28;20518;-55
2024/01/24 02:21:32;;;;;;;2.20;0.68;;;19.10;50.80;;;;;;4996348;28;20058;-53
2024/01/24 02:23:59;;;;;;;1.80;0.75;;;19.20;50.80;;;;;;4998002;28;20058;-58
2024/01/24 02:26:25;;;;;;;1.33;0.70;;;19.20;50.70;;;;;;5003287;28;20036;-57
2024/01/24 02:28:51;;;;;;;1.77;0.70;;;19.20;50.60;;;;;;4998585;28;20439;-55
2024/01/24 02:31:16;;;;;;;0.85;0.47;;;19.20;50.60;;;;;;4994606;28;20042;-48
2024/01/24 02:33:42;;;;;;;2.85;0.50;;;19.20;50.60;;;;;;4994959;28;20088;-50
2024/01/24 02:36:09;;;;;;;2.03;0.70;;;19.20;50.60;;;;;;4995208;28;20503;-50
2024/01/24 02:38:35;;;;;;;1.63;0.73;;;19.30;50.60;;;;;;4995775;28;20054;-48
2024/01/24 02:41:01;;;;;;;0.90;0.70;;;19.30;50.50;;;;;;4996254;28;20045;-55
2024/01/24 02:43:26;;;;;;;0.98;0.70;;;19.30;50.50;;;;;;4998090;28;20034;-48
2024/01/24 02:45:52;;;;;;;1.73;0.73;;;19.30;50.50;;;;;;4993707;28;20499;-58
2024/01/24 02:48:18;;;;;;;1.30;0.52;;;19.30;50.60;;;;;;5000574;28;20053;-53
2024/01/24 02:50:43;;;;;;;1.58;0.73;;;19.30;50.40;;;;;;4987250;28;20040;-49
2024/01/24 02:53:09;;;;;;;2.17;0.60;;;19.40;50.50;;;;;;4981078;28;20381;-51
2024/01/24 02:55:34;;;;;;;1.20;0.47;;;19.40;50.50;;;;;;4987209;28;20738;-53
2024/01/24 02:58:00;;;;;;;1.48;0.50;;;19.30;50.40;;;;;;4999401;28;20037;-59
2024/01/24 03:00:27;;;;;;;1.48;0.60;;;19.30;50.40;;;;;;5003207;28;20484;-51
2024/01/24 03:02:53;;;;;;;1.48;0.60;;;19.40;50.50;;;;;;4999465;28;20031;-57
2024/01/24 03:05:18;;;;;;;1.52;0.70;;;19.30;50.40;;;;;;4992757;28;20034;-52
2024/01/24 03:07:44;;;;;;;0.75;0.40;;;19.30;50.40;;;;;;4990006;28;20100;-47
2024/01/24 03:10:09;;;;;;;1.00;0.52;;;19.30;50.40;;;;;;4990978;28;20506;-48
2024/01/24 03:12:35;;;;;;;1.15;0.50;;;19.30;50.50;;;;;;4985109;28;20038;-51
2024/01/24 03:15:01;;;;;;;1.05;0.60;;;19.30;50.50;;;;;;4992844;28;20138;-48
2024/01/24 03:17:26;;;;;;;1.25;0.50;;;19.30;50.60;;;;;;4995622;28;20030;-50
2024/01/24 03:19:52;;;;;;;0.93;0.45;;;19.30;50.60;;;;;;4988989;28;20042;-50
2024/01/24 03:22:18;;;;;;;0.50;0.40;;;19.20;50.50;;;;;;4994857;28;20038;-54
2024/01/24 03:24:43;;;;;;;3.58;0.80;;;19.30;50.60;;;;;;4993212;28;20029;-50
2024/01/24 03:27:09;;;;;;;1.25;0.70;;;19.20;50.60;;;;;;4989268;28;20031;-51
2024/01/24 03:29:35;;;;;;;0.90;0.40;;;19.20;50.70;;;;;;4999015;28;20116;-50
2024/01/24 03:32:00;;;;;;;1.55;0.50;;;19.20;50.70;;;;;;4995488;28;20113;-50
2024/01/24 03:34:30;;;;;;;0.77;0.32;;;19.20;50.80;;;;;;4994865;28;20026;-51
2024/01/24 03:36:55;;;;;;;0.85;0.50;;;19.20;50.80;;;;;;4993501;28;20109;-46
2024/01/24 03:39:21;;;;;;;1.77;0.60;;;19.10;50.80;;;;;;4994887;28;20121;-52
2024/01/24 03:41:46;;;;;;;0.50;0.40;;;19.10;50.80;;;;;;4992333;28;20066;-50
2024/01/24 03:44:12;;;;;;;1.00;0.43;;;19.10;50.90;;;;;;4999920;28;20033;-52
2024/01/24 03:46:38;;;;;;;2.05;0.70;;;19.10;50.90;;;;;;4984613;28;21006;-49
2024/01/24 03:49:04;;;;;;;0.77;0.60;;;19.10;50.90;;;;;;4995724;28;20026;-52
2024/01/24 03:51:30;;;;;;;0.40;0.38;;;19.00;50.90;;;;;;5001435;28;20395;-49
2024/01/24 03:53:56;;;;;;;1.25;0.52;;;19.00;51.00;;;;;;4997736;28;20459;-47
2024/01/24 03:56:21;;;;;;;1.30;0.35;;;19.10;51.00;;;;;;4995437;28;20096;-52
2024/01/24 03:58:47;;;;;;;1.15;0.60;;;19.00;51.00;;;;;;4999494;28;20559;-50
2024/01/24 04:01:13;;;;;;;0.80;0.50;;;19.00;51.10;;;;;;4987974;28;20100;-49
2024/01/24 04:03:38;;;;;;;0.95;0.40;;;19.00;51.10;;;;;;4990358;28;20471;-48
2024/01/24 04:06:04;;;;;;;1.25;0.50;;;19.00;51.10;;;;;;4992172;28;20483;-49
2024/01/24 04:08:29;;;;;;;0.43;0.35;;;18.90;51.10;;;;;;4993026;28;20030;-48
2024/01/24 04:10:55;;;;;;;1.20;0.50;;;19.00;51.20;;;;;;4994669;28;20762;-51
2024/01/24 04:13:20;;;;;;;0.75;0.40;;;18.90;51.10;;;;;;4991493;28;20041;-49
2024/01/24 04:15:46;;;;;;;1.80;0.50;;;18.90;51.10;;;;;;4984913;28;20069;-49
2024/01/24 04:18:11;;;;;;;0.98;0.50;;;18.90;51.20;;;;;;4989897;28;20081;-47
2024/01/24 04:20:37;;;;;;;0.75;0.43;;;18.90;51.20;;;;;;5002374;28;20034;-48
2024/01/24 04:23:02;;;;;;;1.00;0.50;;;18.90;51.20;;;;;;4995982;28;20117;-48
2024/01/24 04:25:28;;;;;;;1.13;0.52;;;18.90;51.20;;;;;;5000321;28;20034;-48
2024/01/24 04:27:53;;;;;;;0.40;0.20;;;18.90;51.20;;;;;;5001485;28;20045;-50
2024/01/24 04:30:19;;;;;;;1.02;0.50;;;18.90;51.20;;;;;;5002051;28;20037;-49
2024/01/24 04:32:44;;;;;;;0.98;0.47;;;18.80;51.10;;;;;;4998408;28;20113;-49
2024/01/24 04:35:10;;;;;;;0.70;0.38;;;18.90;51.30;;;;;;5005053;28;20041;-49
2024/01/24 04:37:35;;;;;;;0.68;0.30;;;18.80;51.20;;;;;;5008420;28;20519;-51
2024/01/24 04:40:01;;;;;;;2.17;0.50;;;18.90;51.30;;;;;;5006485;28;20029;-51
2024/01/24 04:42:26;;;;;;;0.70;0.40;;;18.90;51.20;;;;;;5006410;28;20049;-51
2024/01/24 04:44:52;;;;;;;0.52;0.47;;;18.80;51.20;;;;;;5002282;28;20499;-45
2024/01/24 04:47:18;;;;;;;0.50;0.30;;;18.90;51.20;;;;;;4976335;28;20037;-54
2024/01/24 04:49:43;;;;;;;0.80;0.40;;;18.90;51.20;;;;;;4995141;28;20038;-47
2024/01/24 04:52:09;;;;;;;0.90;0.40;;;18.80;51.10;;;;;;4992649;28;20033;-51
2024/01/24 04:54:35;;;;;;;1.30;0.57;;;18.90;51.20;;;;;;4991692;28;20037;-49
2024/01/24 04:57:02;;;;;;;0.73;0.32;;;18.90;51.20;;;;;;4995864;28;20037;-51
2024/01/24 04:59:28;;;;;;;0.57;0.30;;;18.90;51.20;;;;;;4975451;28;20515;-52
2024/01/24 05:01:54;;;;;;;0.60;0.50;;;18.90;51.20;;;;;;4977254;28;20046;-50
2024/01/24 05:04:19;;;;;;;2.38;0.30;;;18.90;51.20;;;;;;4992802;28;20022;-51
2024/01/24 05:06:45;;;;;;;1.23;0.65;;;18.90;51.10;;;;;;4978179;28;20488;-53
2024/01/24 05:09:10;;;;;;;0.38;0.30;;;18.90;51.20;;;;;;4993492;28;20112;-47
2024/01/24 05:11:42;;;;;;;2.13;0.40;;;18.90;51.10;;;;;;4994098;28;20546;-55
2024/01/24 05:14:07;;;;;;;0.82;0.30;;;18.90;51.10;;;;;;4991300;28;20034;-56
2024/01/24 05:16:33;;;;;;;1.10;0.45;;;18.90;51.80;;;;;;4997043;28;20388;-52
2024/01/24 05:18:59;;;;;;;1.27;0.45;;;19.00;51.30;;;;;;4976975;28;20040;-50
2024/01/24 05:21:24;;;;;;;1.02;0.45;;;19.00;51.30;;;;;;4994120;28;20030;-56
2024/01/24 05:23:51;;;;;;;2.65;0.60;;;18.90;51.20;;;;;;4984777;28;20034;-52
2024/01/24 05:26:17;;;;;;;1.85;0.40;;;18.90;51.20;;;;;;4993732;28;20036;-49
2024/01/24 05:28:42;;;;;;;2.00;0.60;;;18.90;51.30;;;;;;4993900;28;20033;-54
2024/01/24 05:31:08;;;;;;;0.35;0.30;;;18.90;51.20;;;;;;5000131;28;20080;-52
2024/01/24 05:33:33;;;;;;;0.82;0.30;;;18.90;51.20;;;;;;4995325;28;20399;-51
2024/01/24 05:35:59;;;;;;;5.50;0.60;;;19.00;51.60;;;;;;4992395;28;20039;-49
2024/01/24 05:38:24;;;;;;;1.08;0.52;;;19.00;51.40;;;;;;4997551;28;20240;-49
2024/01/24 05:40:50;;;;;;;0.40;0.30;;;19.00;51.30;;;;;;4992979;28;20045;-48
2024/01/24 05:43:15;;;;;;;1.60;0.40;;;19.00;51.30;;;;;;4995454;28;20476;-48
2024/01/24 05:45:41;;;;;;;1.35;0.50;;;19.00;51.30;;;;;;4998362;28;20038;-52
2024/01/24 05:48:08;;;;;;;1.58;0.50;;;19.00;51.30;;;;;;4995661;28;20530;-51
2024/01/24 05:50:33;;;;;;;1.25;0.50;;;19.00;51.20;;;;;;4974103;28;20042;-52
2024/01/24 05:52:58;;;;;;;1.10;0.30;;;18.90;51.20;;;;;;4994040;28;20163;-52
2024/01/24 05:55:24;;;;;;;0.45;0.32;;;18.90;51.10;;;;;;4993234;28;20455;-51
2024/01/24 05:57:50;;;;;;;4.70;0.88;;;19.00;51.20;;;;;;4993364;28;20080;-48
2024/01/24 06:00:16;;;;;;;7.13;1.80;;;19.00;51.30;;;;;;4979561;28;20061;-46
2024/01/24 06:02:43;;;;;;;7.38;2.85;;;19.00;51.40;;;;;;4995893;28;20026;-49
2024/01/24 06:05:08;;;;;;;9.98;3.70;;;19.10;51.80;;;;;;4977519;28;20077;-49
2024/01/24 06:07:34;;;;;;;13.38;5.15;;;19.10;52.00;;;;;;4993764;28;20046;-49
2024/01/24 06:10:00;;;;;;;20.83;6.63;;;19.20;52.20;;;;;;4993222;28;20180;-57
2024/01/24 06:12:26;;;;;;;19.58;7.10;;;19.20;52.10;;;;;;4992149;28;20045;-52
2024/01/24 06:14:54;;;;;;;23.58;8.25;;;19.20;52.10;;;;;;4994350;28;20729;-49
2024/01/24 06:17:19;;;;;;;19.67;6.63;;;19.20;52.10;;;;;;4992516;28;20050;-50
2024/01/24 06:19:45;;;;;;;15.65;6.20;;;19.20;52.20;;;;;;4996271;28;20072;-51
2024/01/24 06:22:10;;;;;;;17.45;5.75;;;19.20;52.20;;;;;;4998251;28;20725;-48
2024/01/24 06:24:36;;;;;;;20.55;5.53;;;19.20;52.20;;;;;;4993808;28;20045;-53
2024/01/24 06:27:02;;;;;;;17.33;5.47;;;19.20;52.30;;;;;;5006270;28;20064;-52
2024/01/24 06:29:29;;;;;;;13.65;5.18;;;19.20;52.30;;;;;;4995075;28;20027;-55
2024/01/24 06:31:55;;;;;;;12.10;5.18;;;19.20;52.30;;;;;;5000650;28;20060;-47
2024/01/24 06:34:21;;;;;;;11.38;4.60;;;19.10;52.10;;;;;;4997305;28;20037;-52
2024/01/24 06:36:47;;;;;;;11.75;3.90;;;19.20;52.10;;;;;;4996870;28;20042;-51
2024/01/24 06:39:12;;;;;;;13.15;4.47;;;19.20;52.80;;;;;;4998704;28;20499;-48
2024/01/24 06:41:38;;;;;;;11.20;4.00;;;19.20;52.10;;;;;;4995358;28;20026;-52
2024/01/24 06:44:05;;;;;;;12.60;3.78;;;19.20;52.10;;;;;;5001654;28;20030;-52
2024/01/24 06:46:31;;;;;;;8.50;3.70;;;19.20;52.10;;;;;;4993531;28;20042;-61
2024/01/24 06:48:56;;;;;;;8.38;3.08;;;19.10;52.10;;;;;;4996572;28;20399;-54
2024/01/24 06:51:22;;;;;;;9.30;3.13;;;19.10;52.10;;;;;;4992624;28;20034;-46
2024/01/24 06:53:47;;;;;;;9.60;3.22;;;19.10;52.10;;;;;;4994890;28;20141;-50
2024/01/24 06:56:13;;;;;;;10.05;2.95;;;19.10;52.10;;;;;;4992641;28;20237;-49
2024/01/24 06:58:40;;;;;;;7.80;3.30;;;19.10;52.10;;;;;;4996294;28;20133;-52
2024/01/24 07:01:06;;;;;;;12.40;3.22;;;19.10;52.10;;;;;;4992381;28;20113;-53
2024/01/24 07:03:32;;;;;;;9.68;3.30;;;19.10;52.10;;;;;;4992629;28;20708;-50
2024/01/24 07:05:57;;;;;;;7.95;3.17;;;19.10;52.20;;;;;;4994255;28;20041;-51
2024/01/24 07:08:23;;;;;;;8.43;2.95;;;19.10;52.10;;;;;;4990492;28;20156;-48
2024/01/24 07:10:48;;;;;;;8.82;3.08;;;19.10;52.10;;;;;;4993189;28;20092;-53
2024/01/24 07:13:14;;;;;;;8.77;2.83;;;19.10;52.20;;;;;;4993359;28;20403;-50
2024/01/24 07:15:40;;;;;;;8.80;2.92;;;19.10;52.10;;;;;;4974028;28;20038;-50
2024/01/24 07:18:05;;;;;;;6.25;2.78;;;19.10;52.10;;;;;;4996986;28;20025;-48
2024/01/24 07:20:31;;;;;;;8.15;2.72;;;19.10;52.10;;;;;;4993007;28;20065;-49
2024/01/24 07:22:56;;;;;;;8.48;2.55;;;19.10;52.10;;;;;;5002140;28;20551;-48
2024/01/24 07:25:22;;;;;;;7.40;3.13;;;19.10;52.10;;;;;;4996505;28;20030;-50
2024/01/24 07:27:48;;;;;;;6.05;2.10;;;19.10;52.50;;;;;;4996220;28;20038;-47
2024/01/24 07:30:15;;;;;;;5.38;2.60;;;19.10;52.10;;;;;;4996037;28;20029;-49
2024/01/24 07:32:42;;;;;;;6.43;2.60;;;19.10;52.30;;;;;;4995966;28;20036;-51
2024/01/24 07:35:09;;;;;;;10.43;2.20;;;19.00;52.00;;;;;;4993654;28;20121;-47
2024/01/24 07:37:34;;;;;;;8.68;2.47;;;19.00;52.10;;;;;;4989920;28;20644;-56
2024/01/24 07:40:00;;;;;;;5.93;2.70;;;18.90;52.10;;;;;;4987800;28;20104;-52
2024/01/24 07:42:25;;;;;;;6.90;2.33;;;18.90;52.10;;;;;;4992015;28;20018;-48
2024/01/24 07:44:51;;;;;;;6.43;2.15;;;18.90;52.20;;;;;;4994963;28;20077;-50
2024/01/24 07:47:19;;;;;;;4.22;1.73;;;18.90;52.20;;;;;;4995835;28;20046;-47
2024/01/24 07:49:45;;;;;;;3.92;2.03;;;18.80;52.20;;;;;;4996248;28;20077;-54
2024/01/24 07:52:11;;;;;;;4.57;2.13;;;18.80;52.20;;;;;;4992473;28;20030;-48
2024/01/24 07:54:36;;;;;;;3.53;1.48;;;18.80;52.20;;;;;;4997640;28;20061;-50
2024/01/24 07:57:03;;;;;;;3.50;1.75;;;18.80;52.40;;;;;;4997396;28;20034;-47
2024/01/24 07:59:29;;;;;;;6.53;2.38;;;18.70;52.30;;;;;;4991137;28;20492;-51
2024/01/24 08:01:55;;;;;;;3.60;1.70;;;18.70;52.40;;;;;;4996801;28;20092;-50
2024/01/24 08:04:20;;;;;;;7.10;1.85;;;18.60;52.30;;;;;;4990922;28;20034;-51
2024/01/24 08:06:47;;;;;;;2.53;1.55;;;18.60;52.30;;;;;;4990560;28;20034;-49
2024/01/24 08:09:13;;;;;;;3.65;1.40;;;18.60;52.40;;;;;;4994704;28;20472;-54
2024/01/24 08:11:38;;;;;;;3.50;1.70;;;18.60;52.40;;;;;;4991669;28;20089;-51
2024/01/24 08:14:04;;;;;;;2.75;1.80;;;18.60;52.50;;;;;;4986335;28;20030;-50
2024/01/24 08:16:31;;;;;;;4.50;1.50;;;18.60;52.50;;;;;;4992155;28;20046;-48
2024/01/24 08:18:58;;;;;;;3.70;1.88;;;18.50;52.50;;;;;;4992127;28;20558;-50
2024/01/24 08:21:24;;;;;;;2.58;1.25;;;18.50;52.50;;;;;;4990679;28;20484;-47
2024/01/24 08:23:49;;;;;;;3.28;1.35;;;18.60;52.40;;;;;;4981446;28;20036;-48
2024/01/24 08:26:15;;;;;;;3.08;1.60;;;18.50;52.30;;;;;;4990103;28;20022;-54
2024/01/24 08:28:42;;;;;;;4.32;1.85;;;18.60;52.20;;;;;;4974242;28;20026;-49
2024/01/24 08:31:09;;;;;;;2.70;1.27;;;18.60;52.10;;;;;;4995266;28;20038;-49
2024/01/24 08:33:34;;;;;;;3.15;1.35;;;18.60;52.00;;;;;;4989518;28;20404;-53
2024/01/24 08:36:00;;;;;;;4.20;1.58;;;18.70;51.90;;;;;;4997318;28;20044;-48
2024/01/24 08:38:25;;;;;;;1.80;1.13;;;18.70;51.80;;;;;;4992320;28;20480;-50
2024/01/24 08:40:51;;;;;;;2.70;1.40;;;18.80;51.70;;;;;;4996016;28;20189;-51
2024/01/24 08:43:16;;;;;;;1.92;1.02;;;18.90;51.50;;;;;;4993618;28;20026;-52
2024/01/24 08:45:42;;;;;;;2.45;1.17;;;19.00;51.50;;;;;;4980131;28;20038;-51
2024/01/24 08:48:08;;;;;;;7.97;1.92;;;19.10;51.50;;;;;;4986736;28;20026;-49
2024/01/24 08:50:33;;;;;;;2.78;1.38;;;19.20;51.60;;;;;;4997062;28;20058;-53
2024/01/24 08:52:59;;;;;;;4.82;1.08;;;19.20;51.50;;;;;;4993170;28;20030;-47
2024/01/24 08:55:25;;;;;;;4.80;1.30;;;19.30;51.50;;;;;;4991532;28;20045;-49
2024/01/24 08:57:50;;;;;;;5.38;1.33;;;19.40;51.50;;;;;;4994553;28;20095;-48
2024/01/24 09:00:16;;;;;;;3.25;1.30;;;19.40;51.40;;;;;;4991918;28;20038;-50
2024/01/24 09:02:42;;;;;;;2.72;1.30;;;19.50;51.90;;;;;;4989176;28;20045;-50
2024/01/24 09:05:08;;;;;;;4.07;1.17;;;19.50;51.10;;;;;;4994133;28;20022;-51
2024/01/24 09:07:34;;;;;;;4.75;1.40;;;19.60;51.10;;;;;;4989161;28;20429;-53
2024/01/24 09:10:02;;;;;;;4.93;2.15;;;19.60;51.20;;;;;;4989409;28;20502;-51
2024/01/24 09:12:28;;;;;;;3.25;1.08;;;19.70;51.00;;;;;;4992649;28;20029;-48
2024/01/24 09:14:54;;;;;;;5.63;1.63;;;19.70;51.10;;;;;;4990095;28;20040;-55
2024/01/24 09:17:19;;;;;;;5.75;1.30;;;19.70;51.10;;;;;;4970240;28;20527;-48
2024/01/24 09:19:45;;;;;;;3.38;1.02;;;19.70;51.20;;;;;;4978330;28;20030;-49
2024/01/24 09:22:10;;;;;;;4.18;1.48;;;19.70;51.20;;;;;;4989229;28;20039;-53
2024/01/24 09:24:38;;;;;;;4.18;1.45;;;19.80;51.40;;;;;;4988977;28;20038;-52
2024/01/24 09:27:04;;;;;;;4.20;1.13;;;19.70;51.20;;;;;;4995816;28;20034;-55
2024/01/24 09:29:30;;;;;;;2.75;0.98;;;19.70;51.20;;;;;;4990469;28;20496;-52
2024/01/24 09:31:56;;;;;;;5.63;1.10;;;19.80;51.30;;;;;;4999562;28;20661;-47
2024/01/24 09:34:23;;;;;;;5.10;1.17;;;19.80;51.30;;;;;;4989698;28;20031;-49
2024/01/24 09:36:49;;;;;;;3.35;1.45;;;19.70;51.30;;;;;;4995718;28;20037;-49
2024/01/24 09:39:14;;;;;;;4.68;1.17;;;19.80;51.90;;;;;;4991417;28;20399;-55
2024/01/24 09:41:42;;;;;;;2.92;1.00;;;19.80;51.30;;;;;;4989443;28;20034;-50
2024/01/24 09:44:14;;;;;;;5.53;0.85;;;19.80;51.30;;;;;;4986417;28;20105;-49
2024/01/24 09:46:43;;;;;;;4.50;0.90;;;19.80;51.40;;;;;;4990143;28;20588;-47
2024/01/24 09:49:09;;;;;;;2.72;0.85;;;19.80;51.40;;;;;;4990869;28;20048;-49
2024/01/24 09:51:35;;;;;;;2.05;0.70;;;19.80;51.40;;;;;;4989573;28;20027;-57
2024/01/24 09:54:06;;;;;;;2.33;0.75;;;19.70;51.40;;;;;;4993168;28;20030;-52
2024/01/24 09:56:37;;;;;;;1.85;0.60;;;19.70;51.50;;;;;;4993247;28;20037;-48
2024/01/24 09:59:07;;;;;;;2.08;0.70;;;19.70;51.50;;;;;;4991694;28;20045;-52
2024/01/24 10:01:38;;;;;;;1.55;0.63;;;19.70;51.60;;;;;;4970319;28;20038;-50
2024/01/24 10:04:03;;;;;;;3.53;0.80;;;19.70;51.50;;;;;;4986230;28;20042;-50
2024/01/24 10:06:29;;;;;;;3.33;1.23;;;19.70;51.60;;;;;;4985590;28;20041;-51
2024/01/24 10:08:56;;;;;;;2.40;0.95;;;19.60;51.70;;;;;;4987346;28;20818;-49
2024/01/24 10:11:23;;;;;;;1.52;0.80;;;19.60;51.70;;;;;;4984231;28;20117;-51
2024/01/24 10:13:49;;;;;;;1.95;0.95;;;19.60;51.70;;;;;;4988337;28;20139;-55
2024/01/24 10:16:14;;;;;;;2.45;0.60;;;19.60;51.90;;;;;;4993051;28;20218;-50
2024/01/24 10:18:41;;;;;;;2.55;0.77;;;19.50;51.80;;;;;;4973988;28;20126;-46
2024/01/24 10:21:07;;;;;;;3.65;0.70;;;19.50;51.80;;;;;;5011994;23;20049;-50
2024/01/24 10:23:33;;;;;;;2.03;0.70;;;19.50;51.90;;;;;;5009666;28;20030;-50
2024/01/24 10:25:59;;;;;;;2.60;0.70;;;19.50;51.90;;;;;;5005711;28;20495;-50
2024/01/24 10:28:25;;;;;;;1.50;0.60;;;19.50;51.90;;;;;;5008035;28;20140;-49
2024/01/24 10:30:50;;;;;;;1.88;0.73;;;19.40;52.00;;;;;;5010729;28;20096;-49
2024/01/24 10:33:16;;;;;;;2.00;0.63;;;19.40;52.00;;;;;;5001809;28;20034;-49
2024/01/24 10:35:44;;;;;;;3.13;0.95;;;19.40;52.10;;;;;;5007261;28;20056;-49
2024/01/24 10:38:11;;;;;;;3.38;0.50;;;19.30;52.10;;;;;;5005833;28;20083;-48
2024/01/24 10:40:39;;;;;;;1.33;0.43;;;19.30;52.20;;;;;;5005219;28;20068;-49
2024/01/24 10:43:16;;;;;;;3.17;0.73;;;19.30;52.30;;;;;;5011425;28;20143;-49
2024/01/24 10:45:44;;;;;;;2.00;0.75;;;19.20;52.30;;;;;;5013679;28;20101;-48
2024/01/24 10:48:11;;;;;;;1.27;0.70;;;19.20;52.30;;;;;;4988806;28;20423;-49
2024/01/24 10:50:41;;;;;;;1.98;0.68;;;19.20;52.40;;;;;;5006304;28;20034;-51
2024/01/24 10:53:08;;;;;;;2.47;0.90;;;19.20;52.40;;;;;;5009375;28;20085;-50
2024/01/24 10:55:36;;;;;;;1.52;0.40;;;19.20;52.40;;;;;;5004072;28;20206;-48
2024/01/24 10:58:02;;;;;;;1.15;0.77;;;19.20;52.50;;;;;;5012963;28;20681;-48
2024/01/24 11:00:28;;;;;;;3.17;0.73;;;19.20;52.50;;;;;;5001601;28;20494;-48
2024/01/24 11:02:54;;;;;;;1.10;0.43;;;19.20;52.50;;;;;;5003290;28;20045;-51
2024/01/24 11:05:34;;;;;;;2.70;0.75;;;19.20;52.60;;;;;;4993770;28;20042;-50
2024/01/24 11:08:26;;;;;;;2.45;0.65;;;19.20;52.60;;;;;;5007297;28;20029;-50
2024/01/24 11:10:55;;;;;;;3.08;0.70;;;19.20;52.60;;;;;;5003600;28;20022;-49
2024/01/24 11:13:24;;;;;;;2.28;0.50;;;19.10;52.60;;;;;;5013286;28;20054;-51
2024/01/24 11:15:54;;;;;;;1.80;0.90;;;19.10;52.70;;;;;;5011630;28;20056;-48
2024/01/24 11:18:25;;;;;;;2.95;0.50;;;19.10;52.60;;;;;;5002984;28;20037;-53
2024/01/24 11:20:56;;;;;;;2.97;0.95;;;19.10;52.70;;;;;;5011552;28;20131;-49
2024/01/24 11:23:48;;;;;;;3.13;0.80;;;19.10;53.40;;;;;;5015952;28;20029;-51
2024/01/24 11:26:17;;;;;;;1.67;0.82;;;19.10;52.90;;;;;;5010731;28;20040;-50
2024/01/24 11:28:43;;;;;;;1.60;0.57;;;19.10;52.90;;;;;;5012230;28;20034;-52
2024/01/24 11:31:09;;;;;;;2.33;0.68;;;19.10;52.80;;;;;;5018100;28;20033;-51
2024/01/24 11:33:35;;;;;;;0.93;0.43;;;19.20;52.90;;;;;;5012513;28;20088;-49
2024/01/24 11:36:04;;;;;;;1.52;0.50;;;19.10;52.90;;;;;;5014056;28;20034;-50
2024/01/24 11:38:29;;;;;;;1.55;0.73;;;19.20;53.00;;;;;;5016573;28;20034;-50
2024/01/24 11:41:12;;;;;;;3.00;1.15;;;19.10;52.90;;;;;;5013541;28;21451;-51
2024/01/24 11:43:42;;;;;;;1.40;0.73;;;19.10;52.90;;;;;;5021376;28;20057;-50
2024/01/24 11:46:08;;;;;;;1.83;0.55;;;19.10;53.10;;;;;;5015098;28;20124;-49
2024/01/24 11:48:36;;;;;;;2.00;0.55;;;19.10;53.20;;;;;;5012900;28;20122;-50
2024/01/24 11:51:04;;;;;;;3.03;0.80;;;19.10;53.20;;;;;;5014651;28;20104;-48
2024/01/24 11:53:30;;;;;;;1.70;0.50;;;19.10;53.10;;;;;;5016615;28;20033;-51
2024/01/24 11:55:57;;;;;;;1.77;0.70;;;19.10;53.30;;;;;;5014851;28;20091;-50
2024/01/24 11:58:26;;;;;;;2.78;0.88;;;19.10;53.20;;;;;;5015418;28;20035;-49
2024/01/24 12:01:09;;;;;;;1.35;0.60;;;19.10;53.80;;;;;;5013396;28;20030;-54
2024/01/24 12:03:35;;;;;;;1.55;0.63;;;19.20;53.20;;;;;;5018896;28;20039;-48
2024/01/24 12:06:01;;;;;;;1.95;0.60;;;19.20;53.20;;;;;;5018356;28;20033;-50
2024/01/24 12:08:28;;;;;;;2.17;0.80;;;19.20;53.20;;;;;;5015778;28;20029;-51
2024/01/24 12:10:53;;;;;;;1.65;0.52;;;19.20;53.20;;;;;;5013729;28;20701;-52
2024/01/24 12:13:22;;;;;;;2.58;0.82;;;19.20;53.10;;;;;;5018899;28;20083;-51
2024/01/24 12:15:48;;;;;;;1.98;0.80;;;19.20;53.10;;;;;;5011666;28;20034;-47
2024/01/24 12:18:16;;;;;;;1.55;0.60;;;19.20;53.20;;;;;;5014381;28;20041;-49
2024/01/24 12:20:49;;;;;;;4.65;0.80;;;19.20;53.70;;;;;;5013908;28;20045;-51
2024/01/24 12:23:16;;;;;;;1.63;0.60;;;19.20;53.10;;;;;;5013607;28;20128;-50
2024/01/24 12:25:43;;;;;;;2.40;0.93;;;19.20;53.20;;;;;;5019319;28;20133;-48
2024/01/24 12:28:09;;;;;;;2.28;0.60;;;19.20;53.10;;;;;;5018504;28;20091;-53
2024/01/24 12:30:35;;;;;;;3.17;0.98;;;19.20;53.10;;;;;;5010882;28;20034;-51
2024/01/24 12:33:03;;;;;;;2.88;0.80;;;19.20;53.10;;;;;;5009636;28;20458;-56
2024/01/24 12:35:29;;;;;;;2.47;0.75;;;19.20;53.20;;;;;;5007268;28;20384;-51
2024/01/24 12:38:04;;;;;;;2.92;0.60;;;19.20;53.20;;;;;;4994443;28;20037;-52
2024/01/24 12:40:33;;;;;;;3.67;0.65;;;19.20;53.20;;;;;;5010218;28;20038;-47